Time;durP1;ratioP1;P1;durP2;ratioP2;P2;SDS_P1;SDS_P2;PMS_P1;PMS_P2;Temp;Humidity;BMP_temperature;BMP_pressure;BME280_temperature;BME280_humidity;BME280_pressure;Samples;Min_cycle;Max_cycle;Signal;HPM_P1;HPM_P2
2022/08/17 00:00:18;;;;;;;3.38;2.35;;;27.20;99.90;;;;;;4175625;28;20548;-68
2022/08/17 00:03:04;;;;;;;5.65;2.58;;;27.20;99.90;;;;;;4182439;28;20232;-69
2022/08/17 00:05:10;;;;;;;3.58;2.80;;;27.20;99.90;;;;;;4175446;28;20059;-68
2022/08/17 00:07:14;;;;;;;4.78;2.55;;;27.20;99.90;;;;;;4192485;28;20047;-67
2022/08/17 00:09:20;;;;;;;8.43;3.35;;;27.20;99.90;;;;;;4179750;28;20068;-68
2022/08/17 00:11:33;;;;;;;6.90;2.90;;;27.30;99.90;;;;;;4177109;28;20143;-68
2022/08/17 00:13:40;;;;;;;9.65;2.55;;;27.30;99.90;;;;;;4192386;28;20044;-68
2022/08/17 00:15:47;;;;;;;6.20;2.63;;;27.40;99.90;;;;;;4192416;28;20064;-70
2022/08/17 00:17:53;;;;;;;4.68;2.88;;;27.40;99.90;;;;;;4191805;28;20049;-69
2022/08/17 00:19:59;;;;;;;9.40;3.15;;;27.50;99.90;;;;;;4175890;28;20045;-69
2022/08/17 00:22:06;;;;;;;7.22;2.83;;;27.50;99.90;;;;;;4175893;28;20056;-69
2022/08/17 00:24:33;;;;;;;6.07;2.80;;;27.50;99.90;;;;;;4172229;28;20079;-69
2022/08/17 00:26:38;;;;;;;3.83;2.28;;;27.60;99.90;;;;;;4175276;28;20049;-69
2022/08/17 00:28:50;;;;;;;4.85;2.40;;;27.60;99.90;;;;;;4159004;28;20578;-69
2022/08/17 00:30:57;;;;;;;4.10;2.45;;;27.60;99.90;;;;;;4159324;28;20676;-69
2022/08/17 00:33:09;;;;;;;4.47;2.80;;;27.70;99.90;;;;;;4175473;28;20759;-69
2022/08/17 00:35:26;;;;;;;6.30;2.85;;;27.60;99.90;;;;;;4175348;28;20147;-70
2022/08/17 00:37:31;;;;;;;7.55;2.50;;;27.60;99.90;;;;;;4175488;28;20068;-69
2022/08/17 00:39:35;;;;;;;7.97;2.55;;;27.60;99.90;;;;;;4175623;28;20059;-68
2022/08/17 00:41:42;;;;;;;6.28;2.50;;;27.60;99.90;;;;;;4174802;28;20087;-69
2022/08/17 00:43:57;;;;;;;6.05;2.78;;;27.60;99.90;;;;;;4175489;28;20444;-69
2022/08/17 00:46:04;;;;;;;4.00;2.25;;;27.60;99.90;;;;;;4159921;28;20072;-69
2022/08/17 00:48:11;;;;;;;5.68;3.28;;;27.60;99.90;;;;;;4175162;28;20414;-69
2022/08/17 00:50:33;;;;;;;400.42;40.22;;;27.70;99.90;;;;;;4174696;28;20049;-68
2022/08/17 00:52:42;;;;;;;241.18;29.58;;;27.80;99.90;;;;;;4175364;28;20151;-69
2022/08/17 00:54:51;;;;;;;104.68;14.15;;;27.80;99.90;;;;;;4175500;28;20073;-69
2022/08/17 00:57:07;;;;;;;40.55;7.85;;;27.90;99.90;;;;;;4174879;28;20730;-69
2022/08/17 00:59:13;;;;;;;27.27;4.68;;;28.00;99.90;;;;;;4175141;28;20041;-69
2022/08/17 01:01:21;;;;;;;13.05;3.65;;;28.00;99.90;;;;;;4175241;28;20068;-70
2022/08/17 01:03:30;;;;;;;12.23;2.88;;;28.10;99.90;;;;;;4211150;28;20143;-69
2022/08/17 01:05:37;;;;;;;719.38;53.90;;;28.10;99.90;;;;;;4211049;28;20055;-69
2022/08/17 01:07:47;;;;;;;105.82;9.57;;;28.10;99.90;;;;;;4209888;28;20460;-69
2022/08/17 01:09:54;;;;;;;40.70;5.07;;;28.00;99.90;;;;;;4211179;28;20047;-69
2022/08/17 01:11:58;;;;;;;30.63;4.65;;;28.00;99.90;;;;;;4210581;28;20044;-69
2022/08/17 01:14:06;;;;;;;11.98;2.80;;;28.00;99.90;;;;;;4211203;28;20794;-69
2022/08/17 01:16:27;;;;;;;69.70;6.10;;;28.00;99.90;;;;;;4226469;28;20058;-69
2022/08/17 01:18:32;;;;;;;20.08;3.25;;;28.00;99.90;;;;;;4209178;28;20068;-68
2022/08/17 01:20:54;;;;;;;11.77;2.97;;;28.10;99.90;;;;;;4226122;28;20048;-68
2022/08/17 01:23:00;;;;;;;7.97;2.78;;;28.10;99.90;;;;;;4210897;28;20059;-69
2022/08/17 01:25:06;;;;;;;16.52;3.15;;;28.10;99.90;;;;;;4210754;28;20088;-68
2022/08/17 01:27:12;;;;;;;41.83;5.38;;;28.20;99.90;;;;;;4209513;28;20119;-69
2022/08/17 01:29:21;;;;;;;10.43;2.78;;;28.20;99.90;;;;;;4210311;28;20047;-69
2022/08/17 01:31:28;;;;;;;13.85;3.10;;;28.20;99.90;;;;;;4210540;28;20055;-69
2022/08/17 01:33:35;;;;;;;7.68;3.00;;;28.20;99.90;;;;;;4210700;28;20134;-69
2022/08/17 01:35:41;;;;;;;9.48;3.00;;;28.30;99.90;;;;;;4191539;28;20143;-69
2022/08/17 01:37:46;;;;;;;6.22;2.45;;;28.40;99.90;;;;;;4210684;28;20059;-69
2022/08/17 01:39:55;;;;;;;8.30;2.67;;;28.50;99.90;;;;;;4210878;28;20048;-69
2022/08/17 01:42:23;;;;;;;12.77;3.10;;;28.70;99.90;;;;;;4209306;28;20097;-69
2022/08/17 01:44:27;;;;;;;14.30;2.90;;;28.80;99.90;;;;;;4210586;28;20151;-69
2022/08/17 01:46:35;;;;;;;7.75;2.88;;;28.80;99.90;;;;;;4210880;28;20040;-69
2022/08/17 01:48:41;;;;;;;11.25;2.70;;;28.80;99.90;;;;;;4210200;28;20044;-69
2022/08/17 01:50:47;;;;;;;8.38;2.90;;;28.80;99.90;;;;;;4210524;28;20048;-67
2022/08/17 01:52:57;;;;;;;5.22;2.38;;;28.80;99.90;;;;;;4199931;28;20052;-69
2022/08/17 01:55:05;;;;;;;5.50;2.60;;;28.70;99.90;;;;;;4207745;28;20044;-69
2022/08/17 01:57:09;;;;;;;8.85;3.08;;;28.70;99.90;;;;;;4207474;28;20943;-68
2022/08/17 01:59:17;;;;;;;7.32;2.60;;;28.70;99.90;;;;;;4209339;28;20044;-68
2022/08/17 02:01:23;;;;;;;6.47;2.30;;;28.70;99.90;;;;;;4207280;28;20044;-70
2022/08/17 02:03:28;;;;;;;9.50;2.50;;;28.60;99.90;;;;;;4210488;28;20048;-69
2022/08/17 02:05:35;;;;;;;4.40;2.20;;;28.60;99.90;;;;;;4210123;28;20036;-70
2022/08/17 02:07:41;;;;;;;6.05;2.17;;;28.70;99.90;;;;;;4207114;28;20044;-70
2022/08/17 02:10:07;;;;;;;5.80;2.10;;;28.70;99.90;;;;;;4206672;28;20127;-70
2022/08/17 02:12:23;;;;;;;4.20;2.47;;;28.70;99.90;;;;;;4207633;28;20036;-70
2022/08/17 02:14:42;;;;;;;6.60;2.70;;;28.70;99.90;;;;;;4208909;28;20109;-70
2022/08/17 02:16:47;;;;;;;6.97;2.70;;;28.80;99.90;;;;;;4206739;28;20650;-70
2022/08/17 02:18:54;;;;;;;5.68;2.72;;;28.80;99.90;;;;;;4208829;28;20040;-70
2022/08/17 02:21:01;;;;;;;6.70;2.50;;;28.80;99.90;;;;;;4207200;28;20265;-69
2022/08/17 02:23:07;;;;;;;4.18;2.10;;;28.80;99.90;;;;;;4208970;28;20036;-69
2022/08/17 02:25:15;;;;;;;3.60;1.90;;;28.80;99.90;;;;;;4209060;28;20036;-69
2022/08/17 02:27:26;;;;;;;3.85;2.17;;;28.70;99.90;;;;;;4171457;28;20051;-70
2022/08/17 02:29:31;;;;;;;2.95;1.85;;;28.70;99.90;;;;;;4211162;28;20067;-70
2022/08/17 02:31:37;;;;;;;5.25;2.58;;;28.70;99.90;;;;;;4210961;28;20048;-70
2022/08/17 02:33:44;;;;;;;5.50;2.67;;;28.70;99.90;;;;;;4211189;28;20044;-70
2022/08/17 02:36:04;;;;;;;6.35;2.65;;;28.80;99.90;;;;;;4210276;28;20059;-70
2022/08/17 02:38:10;;;;;;;5.28;2.92;;;28.80;99.90;;;;;;4209961;28;20036;-70
2022/08/17 02:40:18;;;;;;;7.45;3.00;;;28.80;99.90;;;;;;4212127;28;20046;-70
2022/08/17 02:42:40;;;;;;;4.07;2.63;;;28.90;99.90;;;;;;4211398;28;20067;-70
2022/08/17 02:44:45;;;;;;;4.65;2.65;;;28.90;99.90;;;;;;4209380;28;20048;-69
2022/08/17 02:46:49;;;;;;;7.88;2.60;;;29.00;99.90;;;;;;4211746;28;20040;-70
2022/08/17 02:48:55;;;;;;;4.60;1.90;;;29.20;99.90;;;;;;4211756;28;20040;-69
2022/08/17 02:51:02;;;;;;;3.85;1.65;;;29.30;99.90;;;;;;4208313;28;20047;-70
2022/08/17 02:53:08;;;;;;;6.82;2.40;;;29.40;99.90;;;;;;4212436;28;20465;-69
2022/08/17 02:55:26;;;;;;;3.95;1.80;;;29.50;99.90;;;;;;4211105;28;20576;-70
2022/08/17 02:57:32;;;;;;;4.93;3.65;;;29.70;99.90;;;;;;4211670;28;20044;-70
2022/08/17 02:59:39;;;;;;;6.75;2.80;;;29.60;99.90;;;;;;4211955;28;20047;-69
2022/08/17 03:01:50;;;;;;;5.97;3.25;;;29.60;99.90;;;;;;4210696;28;20701;-67
2022/08/17 03:03:57;;;;;;;5.30;2.20;;;29.60;99.90;;;;;;4212581;28;20048;-68
2022/08/17 03:06:06;;;;;;;6.03;2.30;;;29.60;99.90;;;;;;4212517;28;20044;-68
2022/08/17 03:08:11;;;;;;;3.92;2.60;;;29.60;99.90;;;;;;4212776;28;20036;-67
2022/08/17 03:10:18;;;;;;;4.75;2.35;;;29.70;99.90;;;;;;4212543;28;20518;-68
2022/08/17 03:12:27;;;;;;;6.88;2.30;;;29.70;99.90;;;;;;4212610;28;20040;-67
2022/08/17 03:14:32;;;;;;;4.80;2.00;;;29.70;99.90;;;;;;4211390;28;20040;-67
2022/08/17 03:16:45;;;;;;;3.33;2.22;;;29.80;99.90;;;;;;4212227;28;20048;-68
2022/08/17 03:18:53;;;;;;;6.63;2.38;;;30.00;99.90;;;;;;4212124;28;20100;-69
2022/08/17 03:20:59;;;;;;;3.83;2.17;;;30.00;99.90;;;;;;4204076;28;20052;-68
2022/08/17 03:23:05;;;;;;;6.63;2.03;;;30.00;99.90;;;;;;4206686;28;20556;-68
2022/08/17 03:25:13;;;;;;;7.78;1.85;;;30.10;99.90;;;;;;4201445;28;20072;-68
2022/08/17 03:27:21;;;;;;;4.72;2.00;;;30.20;99.90;;;;;;4198644;28;20124;-68
2022/08/17 03:29:28;;;;;;;4.28;1.83;;;30.20;99.90;;;;;;4199667;28;20059;-68
2022/08/17 03:31:34;;;;;;;4.22;2.15;;;30.20;99.90;;;;;;4195270;28;20044;-68
2022/08/17 03:33:40;;;;;;;4.82;2.25;;;30.20;99.90;;;;;;4194418;28;20044;-67
2022/08/17 03:35:47;;;;;;;5.82;2.50;;;30.20;99.90;;;;;;4195492;28;20048;-68
2022/08/17 03:37:53;;;;;;;4.88;1.92;;;30.30;99.90;;;;;;4194210;28;20138;-68
2022/08/17 03:40:04;;;;;;;8.73;1.90;;;30.40;99.90;;;;;;4194806;28;20735;-68
2022/08/17 03:42:15;;;;;;;4.15;2.10;;;30.50;99.90;;;;;;4201459;28;20143;-68
2022/08/17 03:44:35;;;;;;;3.15;2.03;;;30.60;99.90;;;;;;4211257;28;20668;-70
2022/08/17 03:58:33;;;;;;;5.25;1.90;;;30.70;99.90;;;;;;4211745;28;20486;-69
2022/08/17 04:00:39;;;;;;;3.90;1.88;;;30.80;99.90;;;;;;4211873;28;20052;-70
2022/08/17 04:02:46;;;;;;;445.92;55.45;;;30.80;99.90;;;;;;4211864;28;20130;-73
2022/08/17 04:04:53;;;;;;;198.57;19.88;;;30.80;99.90;;;;;;4211759;28;20079;-69
2022/08/17 04:07:00;;;;;;;80.65;10.65;;;30.90;99.90;;;;;;4211699;28;20070;-69
2022/08/17 04:09:06;;;;;;;15.65;3.45;;;30.80;99.90;;;;;;4211161;28;20135;-69
2022/08/17 04:11:11;;;;;;;11.98;2.85;;;30.70;99.90;;;;;;4211720;28;20044;-72
2022/08/17 04:13:16;;;;;;;11.50;2.45;;;30.60;99.90;;;;;;4210299;28;20052;-69
2022/08/17 04:15:29;;;;;;;6.70;2.35;;;30.60;99.90;;;;;;4211687;28;20040;-69
2022/08/17 04:17:36;;;;;;;5.28;2.13;;;30.70;99.90;;;;;;4211553;28;20044;-70
2022/08/17 04:19:41;;;;;;;283.30;36.25;;;30.80;99.90;;;;;;4211280;28;20131;-69
2022/08/17 04:21:48;;;;;;;1017.67;146.02;;;30.80;99.90;;;;;;4211622;28;20043;-71
2022/08/17 04:23:56;;;;;;;138.38;18.48;;;30.80;99.90;;;;;;4210580;28;20095;-68
2022/08/17 04:26:01;;;;;;;82.60;10.45;;;30.80;99.90;;;;;;4210101;28;20047;-70
2022/08/17 04:28:08;;;;;;;15.15;2.92;;;30.80;99.90;;;;;;4209664;28;20071;-68
2022/08/17 04:30:19;;;;;;;9.98;2.55;;;30.80;99.90;;;;;;4192112;28;20045;-69
2022/08/17 04:32:23;;;;;;;8.00;2.90;;;30.80;99.90;;;;;;4211499;28;20487;-69
2022/08/17 04:34:49;;;;;;;6.00;1.90;;;30.80;99.90;;;;;;4209698;28;20067;-69
2022/08/17 04:36:55;;;;;;;118.35;12.32;;;30.90;99.90;;;;;;4211271;28;20147;-70
2022/08/17 04:38:59;;;;;;;23.83;3.72;;;30.90;99.90;;;;;;4211037;28;20646;-69
2022/08/17 04:43:23;;;;;;;8.70;2.40;;;31.00;99.90;;;;;;4194208;28;20045;-67
2022/08/17 04:45:27;;;;;;;7.57;2.03;;;31.00;99.90;;;;;;4194346;28;20052;-69
2022/08/17 04:47:36;;;;;;;19.52;3.72;;;31.00;99.90;;;;;;4194393;28;20056;-69
2022/08/17 04:49:43;;;;;;;9.13;2.10;;;31.00;99.90;;;;;;4209308;28;20043;-69
2022/08/17 04:51:51;;;;;;;4.22;1.95;;;31.10;99.90;;;;;;4193594;28;20086;-68
2022/08/17 04:54:07;;;;;;;3.10;1.63;;;31.00;99.90;;;;;;4194202;28;20052;-68
2022/08/17 04:56:15;;;;;;;8.07;1.90;;;31.10;99.90;;;;;;4194303;28;20693;-69
2022/08/17 04:58:21;;;;;;;4.53;1.80;;;31.30;99.90;;;;;;4194006;28;20407;-68
2022/08/17 05:00:27;;;;;;;7.07;1.83;;;31.30;99.90;;;;;;4209518;28;20110;-69
2022/08/17 05:02:43;;;;;;;2.67;1.50;;;31.30;99.90;;;;;;4199413;28;20558;-69
2022/08/17 05:04:52;;;;;;;4.93;1.58;;;31.30;99.90;;;;;;4209990;28;20059;-69
2022/08/17 05:07:00;;;;;;;4.22;1.70;;;31.40;99.90;;;;;;4210853;28;20032;-69
2022/08/17 05:09:07;;;;;;;3.50;1.75;;;31.50;99.90;;;;;;4210326;28;20574;-68
2022/08/17 05:11:12;;;;;;;2.92;1.60;;;31.60;99.90;;;;;;4210526;28;20043;-68
2022/08/17 05:13:21;;;;;;;5.32;1.65;;;31.50;99.90;;;;;;4210838;28;20133;-67
2022/08/17 05:15:28;;;;;;;2.70;1.42;;;31.50;99.90;;;;;;4193785;28;20036;-67
2022/08/17 05:17:38;;;;;;;6.25;2.00;;;31.40;99.90;;;;;;4210567;28;20044;-68
2022/08/17 05:19:46;;;;;;;4.43;1.50;;;31.40;99.90;;;;;;4210573;28;20477;-68
2022/08/17 05:21:54;;;;;;;3.90;1.80;;;31.30;99.90;;;;;;4210747;28;20117;-68
2022/08/17 05:23:59;;;;;;;4.65;1.67;;;31.40;99.90;;;;;;4210547;28;20055;-68
2022/08/17 05:26:15;;;;;;;5.07;1.90;;;31.30;99.90;;;;;;4225273;28;20060;-68
2022/08/17 05:28:29;;;;;;;4.10;1.77;;;31.40;99.90;;;;;;4209829;28;20399;-68
2022/08/17 05:30:33;;;;;;;4.50;2.13;;;31.40;99.90;;;;;;4210563;28;20048;-68
2022/08/17 05:32:52;;;;;;;5.35;1.80;;;31.40;99.90;;;;;;4210586;28;20040;-68
2022/08/17 05:34:59;;;;;;;3.85;1.75;;;31.40;99.90;;;;;;4210639;28;20062;-69
2022/08/17 05:37:04;;;;;;;5.15;2.13;;;31.30;99.90;;;;;;4210574;28;20059;-68
2022/08/17 05:39:13;;;;;;;6.15;2.15;;;31.30;99.90;;;;;;4210009;28;20623;-68
2022/08/17 05:41:19;;;;;;;5.80;1.75;;;31.20;99.90;;;;;;4174357;28;20114;-68
2022/08/17 05:43:26;;;;;;;6.25;1.70;;;31.00;99.90;;;;;;4210436;28;20134;-68
2022/08/17 05:45:30;;;;;;;5.10;1.73;;;31.00;99.90;;;;;;4225721;28;20105;-69
2022/08/17 05:47:55;;;;;;;5.75;2.13;;;31.00;99.90;;;;;;4209985;28;20131;-68
2022/08/17 05:50:00;;;;;;;5.82;2.55;;;31.00;99.90;;;;;;4210185;28;20101;-68
2022/08/17 05:52:40;;;;;;;4.38;1.50;;;31.10;99.90;;;;;;4210407;28;20048;-69
2022/08/17 05:55:17;;;;;;;4.85;1.70;;;31.20;99.90;;;;;;4210211;28;20138;-68
2022/08/17 05:57:40;;;;;;;3.40;1.67;;;31.30;99.90;;;;;;4210175;28;20052;-68
2022/08/17 06:00:16;;;;;;;4.10;1.58;;;31.50;99.90;;;;;;4210085;28;20051;-68
2022/08/17 06:02:39;;;;;;;4.32;1.80;;;31.70;99.90;;;;;;4208910;28;20051;-69
2022/08/17 06:05:22;;;;;;;2.85;1.48;;;32.00;99.90;;;;;;4209891;28;20060;-70
2022/08/17 06:07:52;;;;;;;5.95;1.80;;;32.00;99.90;;;;;;4209949;28;20044;-70
2022/08/17 06:10:05;;;;;;;3.50;1.50;;;32.00;99.60;;;;;;4209473;28;20577;-69
2022/08/17 06:12:30;;;;;;;3.70;1.58;;;32.10;99.50;;;;;;4209993;28;20488;-68
2022/08/17 06:15:08;;;;;;;3.67;1.30;;;32.30;99.10;;;;;;4208875;28;20127;-70
2022/08/17 06:17:15;;;;;;;4.80;1.60;;;32.20;99.30;;;;;;4209967;28;20054;-68
2022/08/17 06:19:37;;;;;;;5.28;1.70;;;32.10;99.80;;;;;;4209591;28;20558;-68
2022/08/17 06:21:47;;;;;;;6.75;1.40;;;32.20;99.90;;;;;;4209777;28;20054;-68
2022/08/17 06:23:58;;;;;;;3.80;1.85;;;32.20;99.90;;;;;;4209995;28;20514;-68
2022/08/17 06:26:23;;;;;;;7.10;1.80;;;32.20;99.90;;;;;;4209538;28;20039;-68
2022/08/17 06:29:03;;;;;;;3.80;1.50;;;32.20;99.90;;;;;;4209523;28;20056;-69
2022/08/17 06:31:21;;;;;;;5.80;2.03;;;32.00;99.90;;;;;;4209798;28;20036;-68
2022/08/17 06:33:34;;;;;;;6.25;1.85;;;32.00;99.90;;;;;;4210032;28;20048;-69
2022/08/17 06:36:09;;;;;;;5.53;1.90;;;31.90;99.90;;;;;;4190704;28;20548;-67
2022/08/17 06:38:40;;;;;;;4.50;1.63;;;31.90;99.90;;;;;;4210015;28;20048;-70
2022/08/17 06:41:01;;;;;;;6.00;1.70;;;32.00;99.90;;;;;;4208405;28;20048;-70
2022/08/17 06:43:39;;;;;;;3.20;1.15;;;31.90;99.80;;;;;;4209689;28;20097;-70
2022/08/17 06:45:53;;;;;;;4.80;1.42;;;32.00;99.60;;;;;;4209697;28;20068;-68
2022/08/17 06:48:23;;;;;;;4.40;1.52;;;32.00;99.90;;;;;;4209435;28;20048;-69
2022/08/17 06:50:36;;;;;;;4.90;1.55;;;31.90;99.90;;;;;;4209598;28;20052;-66
2022/08/17 06:53:03;;;;;;;3.45;1.58;;;32.00;99.90;;;;;;4209533;28;20044;-67
2022/08/17 06:55:25;;;;;;;3.90;1.30;;;32.20;99.70;;;;;;4209668;28;20075;-66
2022/08/17 06:57:31;;;;;;;5.45;1.33;;;32.30;99.10;;;;;;4209696;28;20040;-66
2022/08/17 06:59:51;;;;;;;4.18;1.20;;;32.30;98.60;;;;;;4209586;28;20105;-65
2022/08/17 07:02:03;;;;;;;7.07;1.67;;;32.20;98.50;;;;;;4209484;28;20093;-66
2022/08/17 07:04:20;;;;;;;3.47;1.30;;;32.10;99.00;;;;;;4209163;28;20518;-66
2022/08/17 07:06:32;;;;;;;3.88;1.50;;;32.10;98.90;;;;;;4191929;28;20131;-67
2022/08/17 07:09:09;;;;;;;3.13;1.40;;;32.00;98.80;;;;;;4209386;28;20097;-66
2022/08/17 07:11:30;;;;;;;4.35;1.23;;;32.00;98.90;;;;;;4209135;28;20525;-66
2022/08/17 07:13:51;;;;;;;5.75;1.70;;;32.00;98.10;;;;;;4191741;28;20080;-66
2022/08/17 07:16:06;;;;;;;3.55;1.42;;;31.70;98.50;;;;;;4191321;28;20544;-65
2022/08/17 07:18:11;;;;;;;9.15;1.67;;;31.30;99.60;;;;;;4195752;28;20479;-64
2022/08/17 07:20:21;;;;;;;4.13;1.40;;;31.10;99.80;;;;;;4195522;28;20048;-66
2022/08/17 07:22:54;;;;;;;4.32;1.70;;;31.00;99.90;;;;;;4195665;28;20044;-64
2022/08/17 07:25:05;;;;;;;5.25;2.10;;;31.00;99.90;;;;;;4195827;28;20099;-65
2022/08/17 07:27:26;;;;;;;4.95;1.63;;;31.00;99.90;;;;;;4196320;28;20041;-63
2022/08/17 07:29:32;;;;;;;4.70;1.63;;;30.90;99.90;;;;;;4212454;28;20097;-65
2022/08/17 07:31:37;;;;;;;4.80;1.77;;;30.90;99.90;;;;;;4212069;28;20052;-64
2022/08/17 07:33:56;;;;;;;6.20;1.80;;;30.60;99.90;;;;;;4212546;28;20179;-65
2022/08/17 07:36:04;;;;;;;4.87;1.60;;;30.40;99.90;;;;;;4211634;28;20040;-65
2022/08/17 07:38:14;;;;;;;6.13;2.03;;;30.40;99.90;;;;;;4211980;28;20040;-64
2022/08/17 07:40:37;;;;;;;3.30;1.70;;;30.40;99.90;;;;;;4211864;28;20063;-66
2022/08/17 07:42:42;;;;;;;3.10;1.70;;;30.50;99.90;;;;;;4203015;28;20087;-66
2022/08/17 07:44:51;;;;;;;3.97;1.80;;;30.70;99.90;;;;;;4187102;28;20052;-66
2022/08/17 07:49:19;;;;;;;3.58;1.60;;;30.90;99.90;;;;;;4206374;28;20514;-65
2022/08/17 07:51:36;;;;;;;8.57;1.92;;;30.90;99.90;;;;;;4210563;28;20036;-65
2022/08/17 07:53:44;;;;;;;3.47;1.75;;;31.00;99.90;;;;;;4200392;28;20422;-65
2022/08/17 07:55:51;;;;;;;7.38;1.75;;;30.90;99.90;;;;;;4190812;28;20044;-66
2022/08/17 07:57:56;;;;;;;3.50;1.40;;;31.00;99.90;;;;;;4201493;28;20052;-66
2022/08/17 08:00:15;;;;;;;4.80;1.70;;;31.10;99.90;;;;;;4207821;28;20540;-65
2022/08/17 08:02:39;;;;;;;5.50;1.90;;;31.20;99.90;;;;;;4200112;28;20045;-65
2022/08/17 08:05:08;;;;;;;3.83;1.70;;;31.20;99.90;;;;;;4194054;28;20846;-65
2022/08/17 08:07:33;;;;;;;6.22;1.70;;;31.00;99.90;;;;;;4192796;28;20491;-65
2022/08/17 08:10:03;;;;;;;7.47;1.80;;;31.20;99.90;;;;;;4193741;28;20071;-65
2022/08/17 08:12:37;;;;;;;5.32;2.10;;;31.00;99.90;;;;;;4201618;28;20032;-65
2022/08/17 08:14:43;;;;;;;7.82;1.95;;;31.10;99.90;;;;;;4210831;28;20066;-65
2022/08/17 08:17:03;;;;;;;6.00;2.35;;;31.30;99.90;;;;;;4209077;28;20506;-65
2022/08/17 08:19:15;;;;;;;4.05;1.90;;;31.40;99.90;;;;;;4210548;28;20054;-65
2022/08/17 08:21:40;;;;;;;4.20;1.80;;;31.40;99.90;;;;;;4201127;28;20052;-65
2022/08/17 08:23:59;;;;;;;6.80;1.92;;;31.50;99.90;;;;;;4193816;28;20536;-65
2022/08/17 08:26:36;;;;;;;8.07;2.00;;;31.70;99.90;;;;;;4193413;28;20048;-66
2022/08/17 08:29:12;;;;;;;4.35;1.80;;;31.80;99.90;;;;;;4196748;28;20067;-66
2022/08/17 08:31:58;;;;;;;4.20;1.80;;;31.90;99.90;;;;;;4210228;28;20054;-66
2022/08/17 08:34:22;;;;;;;;;;;32.00;99.90;;;;;;4210678;28;20056;-67
2022/08/17 08:36:59;;;;;;;4.78;2.53;;;32.00;99.90;;;;;;4210354;28;19924;-66
2022/08/17 08:39:29;;;;;;;22.70;15.20;;;31.90;99.90;;;;;;4210072;28;20388;-67
2022/08/17 08:41:57;;;;;;;12.90;6.63;;;32.00;99.90;;;;;;4210160;28;20036;-67
2022/08/17 08:44:41;;;;;;;8.18;3.95;;;32.00;99.90;;;;;;4210387;28;20074;-67
2022/08/17 08:47:40;;;;;;;4.97;2.60;;;32.20;99.90;;;;;;4190544;28;20094;-67
2022/08/17 08:49:59;;;;;;;13.38;10.93;;;32.30;99.90;;;;;;4191287;28;20047;-67
2022/08/17 08:52:14;;;;;;;7.75;3.53;;;32.20;99.90;;;;;;4174532;28;20057;-67
2022/08/17 08:54:37;;;;;;;4.00;2.20;;;32.30;99.90;;;;;;4174451;28;20151;-67
2022/08/17 08:57:14;;;;;;;4.28;1.60;;;32.30;99.60;;;;;;4174489;28;20049;-67
2022/08/17 08:59:58;;;;;;;3.75;1.30;;;32.20;99.60;;;;;;4174383;28;20069;-67
2022/08/17 09:02:22;;;;;;;3.00;1.13;;;32.20;99.40;;;;;;4174265;28;20053;-67
2022/08/17 09:04:42;;;;;;;3.42;1.27;;;32.20;98.90;;;;;;4174196;28;20140;-67
2022/08/17 09:07:30;;;;;;;3.25;1.17;;;32.10;98.90;;;;;;4174435;28;20115;-67
2022/08/17 09:09:53;;;;;;;7.20;2.28;;;32.00;99.20;;;;;;4174399;28;20514;-67
2022/08/17 09:12:25;;;;;;;10.77;2.03;;;32.00;99.10;;;;;;4180004;28;20072;-67
2022/08/17 09:14:55;;;;;;;5.88;1.60;;;31.90;99.30;;;;;;4190594;28;20048;-68
2022/08/17 09:17:17;;;;;;;6.20;1.50;;;31.80;99.00;;;;;;4190343;28;20109;-67
2022/08/17 09:19:40;;;;;;;12.52;2.42;;;31.80;98.80;;;;;;4208964;28;20044;-67
2022/08/17 09:22:10;;;;;;;4.68;1.35;;;31.80;99.20;;;;;;4209754;28;20055;-67
2022/08/17 09:24:48;;;;;;;4.27;1.00;;;31.80;98.60;;;;;;4209994;28;20597;-68
2022/08/17 09:27:18;;;;;;;3.83;1.20;;;31.80;99.70;;;;;;4209670;28;20318;-67
2022/08/17 09:29:24;;;;;;;3.85;0.77;;;31.80;99.30;;;;;;4209568;28;20044;-67
2022/08/17 09:31:35;;;;;;;3.50;1.25;;;31.90;99.30;;;;;;4209863;28;20051;-67
2022/08/17 09:33:57;;;;;;;4.60;0.95;;;31.90;98.90;;;;;;4208088;28;20050;-68
2022/08/17 09:36:08;;;;;;;4.88;1.30;;;31.90;98.90;;;;;;4208959;28;20042;-67
2022/08/17 09:38:38;;;;;;;6.15;1.50;;;31.90;98.70;;;;;;4207513;28;20064;-68
2022/08/17 09:40:53;;;;;;;3.22;1.30;;;31.90;98.60;;;;;;4209771;28;20044;-68
2022/08/17 09:43:29;;;;;;;4.00;1.30;;;31.90;98.60;;;;;;4210457;28;20051;-68
2022/08/17 09:45:36;;;;;;;;;;;31.90;98.60;;;;;;4209518;28;20618;-69
2022/08/17 09:47:52;;;;;;;13.07;2.05;;;31.90;98.40;;;;;;4209828;28;19973;-69
2022/08/17 09:50:10;;;;;;;7.25;1.35;;;31.90;98.70;;;;;;4208628;28;20056;-68
2022/08/17 09:52:26;;;;;;;8.15;1.45;;;32.00;98.60;;;;;;4202344;28;20047;-67
2022/08/17 09:54:34;;;;;;;6.22;1.13;;;32.00;98.60;;;;;;4207363;28;20040;-67
2022/08/17 09:57:22;;;;;;;2.47;1.00;;;32.00;98.80;;;;;;4208568;28;20093;-68
2022/08/17 10:00:17;;;;;;;3.88;1.27;;;32.00;98.60;;;;;;4207145;28;20052;-66
2022/08/17 10:02:55;;;;;;;4.20;1.48;;;32.00;98.40;;;;;;4209517;28;20501;-66
2022/08/17 10:05:10;;;;;;;4.88;1.40;;;32.00;98.50;;;;;;4208996;28;20076;-66
2022/08/17 10:07:29;;;;;;;5.25;1.23;;;32.00;98.30;;;;;;4209054;28;20044;-65
2022/08/17 10:09:58;;;;;;;4.07;1.27;;;32.00;98.50;;;;;;4208378;28;20048;-65
2022/08/17 10:12:25;;;;;;;2.28;1.17;;;32.10;99.00;;;;;;4208014;28;20040;-65
2022/08/17 10:14:58;;;;;;;5.00;1.33;;;32.00;98.60;;;;;;4207593;28;20479;-65
2022/08/17 10:17:49;;;;;;;5.85;1.35;;;32.00;99.10;;;;;;4208422;28;20658;-65
2022/08/17 10:20:10;;;;;;;4.65;1.50;;;32.00;99.00;;;;;;4208212;28;20181;-64
2022/08/17 10:27:33;;;;;;;5.15;1.55;;;31.90;98.80;;;;;;4209373;28;20043;-67
2022/08/17 10:29:49;;;;;;;5.97;1.30;;;31.90;98.90;;;;;;4209197;28;20042;-66
2022/08/17 10:32:00;;;;;;;6.95;1.20;;;31.90;98.80;;;;;;4208851;28;20425;-66
2022/08/17 10:34:24;;;;;;;5.10;1.63;;;31.80;98.90;;;;;;4208864;28;20044;-64
2022/08/17 10:36:53;;;;;;;4.55;1.85;;;31.80;99.00;;;;;;4208755;28;20040;-65
2022/08/17 10:39:08;;;;;;;2.55;1.10;;;31.80;99.10;;;;;;4208960;28;20483;-66
2022/08/17 10:41:38;;;;;;;6.15;1.58;;;31.70;99.20;;;;;;4208835;28;20147;-66
2022/08/17 10:44:08;;;;;;;7.63;1.65;;;31.70;99.30;;;;;;4206057;28;20058;-66
2022/08/17 10:47:13;;;;;;;5.28;1.42;;;31.60;99.40;;;;;;4208632;28;20051;-66
2022/08/17 10:49:28;;;;;;;4.20;1.52;;;31.60;99.90;;;;;;4207588;28;20718;-65
2022/08/17 10:51:38;;;;;;;10.18;2.40;;;31.40;99.90;;;;;;4208994;28;20562;-66
2022/08/17 10:53:50;;;;;;;50.38;5.57;;;31.40;99.90;;;;;;4207164;28;20040;-66
2022/08/17 10:56:16;;;;;;;116.22;8.85;;;31.40;99.90;;;;;;4207780;28;20348;-66
2022/08/17 10:58:23;;;;;;;23.92;3.03;;;31.40;99.90;;;;;;4208696;28;20040;-66
2022/08/17 11:00:57;;;;;;;29.63;4.07;;;31.40;99.90;;;;;;4209565;28;20055;-66
2022/08/17 11:03:16;;;;;;;15.43;2.88;;;31.30;99.90;;;;;;4208574;28;20411;-65
2022/08/17 11:05:51;;;;;;;4.50;2.05;;;31.30;99.90;;;;;;4208490;28;20458;-66
2022/08/17 11:08:27;;;;;;;12.38;2.13;;;31.30;99.90;;;;;;4191998;28;20071;-66
2022/08/17 11:11:14;;;;;;;14.85;1.90;;;31.30;99.90;;;;;;4209336;28;20866;-66
2022/08/17 11:13:43;;;;;;;11.60;3.10;;;31.20;99.90;;;;;;4208417;28;20046;-66
2022/08/17 11:16:10;;;;;;;12.95;2.30;;;31.10;99.90;;;;;;4209077;28;20044;-67
2022/08/17 11:18:28;;;;;;;10.70;2.60;;;31.10;99.90;;;;;;4210414;28;20661;-67
2022/08/17 11:20:59;;;;;;;6.05;2.20;;;31.10;99.90;;;;;;4210108;28;20079;-67
2022/08/17 11:23:36;;;;;;;8.65;2.20;;;31.00;99.90;;;;;;4210218;28;20056;-67
2022/08/17 11:25:43;;;;;;;23.08;3.15;;;31.00;99.90;;;;;;4209426;28;20138;-67
2022/08/17 11:27:52;;;;;;;7.60;2.40;;;31.00;99.90;;;;;;4208716;28;20040;-67
2022/08/17 11:30:10;;;;;;;19.10;3.50;;;30.90;99.90;;;;;;4174115;28;20068;-69
2022/08/17 11:32:49;;;;;;;13.85;3.65;;;30.90;99.90;;;;;;4206591;28;20053;-67
2022/08/17 11:35:20;;;;;;;17.08;3.95;;;30.90;99.90;;;;;;4208786;28;20051;-68
2022/08/17 11:37:57;;;;;;;10.48;3.53;;;30.80;99.90;;;;;;4209068;28;20109;-68
2022/08/17 11:40:34;;;;;;;7.90;2.47;;;30.80;99.90;;;;;;4208908;28;20143;-67
2022/08/17 11:42:59;;;;;;;8.70;2.95;;;30.80;99.90;;;;;;4208580;28;20717;-66
2022/08/17 11:45:24;;;;;;;6.97;2.80;;;30.80;99.90;;;;;;4209232;28;20068;-66
2022/08/17 11:53:00;;;;;;;5.95;3.67;;;30.70;99.90;;;;;;4184039;28;20075;-67
2022/08/17 11:55:08;;;;;;;5.82;3.20;;;30.70;99.90;;;;;;4188386;28;20046;-68
2022/08/17 11:57:52;;;;;;;8.25;3.20;;;30.70;99.90;;;;;;4170321;28;20122;-68
2022/08/17 12:00:09;;;;;;;6.72;2.75;;;30.70;99.90;;;;;;4191686;28;20666;-68
2022/08/17 12:02:34;;;;;;;9.38;2.72;;;30.70;99.90;;;;;;4188967;28;20086;-69
2022/08/17 12:04:40;;;;;;;5.70;2.47;;;30.60;99.90;;;;;;4176623;28;20053;-67
2022/08/17 12:06:58;;;;;;;8.35;2.35;;;30.60;99.90;;;;;;4162520;28;20152;-67
2022/08/17 12:09:12;;;;;;;6.15;2.50;;;30.60;99.90;;;;;;4191861;28;20052;-66
2022/08/17 12:11:41;;;;;;;4.60;2.25;;;30.50;99.90;;;;;;4175186;28;20127;-66
2022/08/17 12:14:08;;;;;;;6.60;2.60;;;30.60;99.90;;;;;;4189485;28;20128;-66